TAF KYIP
AMD KYIP 082057Z 0821/0918 26007KT P6SM BKN035 BKN060 FM082300 27008KT P6SM OVC040 FM090300 34004KT P6SM SCT050 BKN150 FM090700 VRB03KT P6SM OVC030 FM091300 16008KT P6SM OVC050=
METAR KYIP
WC KYIP
WS KYIP
WV KYIP